createdAt,value
2018-02-13T00:00:06.024Z,-2.60
2018-02-13T00:01:08.616Z,-2.60
2018-02-13T00:02:06.273Z,-2.60
2018-02-13T00:03:05.921Z,-2.60
2018-02-13T00:04:05.233Z,-2.60
2018-02-13T00:05:06.331Z,-2.70
2018-02-13T00:06:06.261Z,-2.60
2018-02-13T00:07:05.498Z,-2.70
2018-02-13T00:08:05.578Z,-2.70
2018-02-13T00:09:05.704Z,-2.70
2018-02-13T00:10:06.291Z,-2.70
2018-02-13T00:11:05.390Z,-2.70
2018-02-13T00:12:11.184Z,-2.70
2018-02-13T00:13:05.492Z,-2.70
2018-02-13T00:14:08.368Z,-2.70
2018-02-13T00:15:10.211Z,-2.70
2018-02-13T00:16:05.857Z,-2.80
2018-02-13T00:17:05.330Z,-2.70
2018-02-13T00:18:05.907Z,-2.70
2018-02-13T00:19:05.793Z,-2.70
2018-02-13T00:20:06.216Z,-2.80
2018-02-13T00:21:15.966Z,-2.80
2018-02-13T00:22:08.501Z,-2.80
2018-02-13T00:23:06.152Z,-2.80
2018-02-13T00:24:05.441Z,-2.80
2018-02-13T00:25:05.844Z,-2.80
2018-02-13T00:26:08.494Z,-2.80
2018-02-13T00:27:06.025Z,-2.80
2018-02-13T00:28:05.776Z,-2.80
2018-02-13T00:29:05.784Z,-2.80
2018-02-13T00:30:07.848Z,-2.80
2018-02-13T00:31:05.294Z,-2.80
2018-02-13T00:32:10.910Z,-2.80
2018-02-13T00:33:05.383Z,-2.90
2018-02-13T00:34:06.422Z,-2.80
2018-02-13T00:35:05.112Z,-2.90
2018-02-13T00:36:05.384Z,-2.90
2018-02-13T00:37:05.250Z,-2.90
2018-02-13T00:38:08.089Z,-2.90
2018-02-13T00:39:08.245Z,-2.90
2018-02-13T00:40:08.306Z,-2.90
2018-02-13T00:41:05.740Z,-3.00
2018-02-13T00:42:05.974Z,-2.90
2018-02-13T00:43:05.411Z,-3.00
2018-02-13T00:44:10.750Z,-3.00
2018-02-13T00:45:05.968Z,-3.00
2018-02-13T00:46:05.562Z,-3.00
2018-02-13T00:47:07.952Z,-3.10
2018-02-13T00:48:08.026Z,-3.10
2018-02-13T00:49:05.480Z,-3.10
2018-02-13T00:50:05.424Z,-3.10
2018-02-13T00:51:05.230Z,-3.10
2018-02-13T00:52:05.626Z,-3.10
2018-02-13T00:53:06.341Z,-3.10
2018-02-13T00:54:05.477Z,-3.10
2018-02-13T00:55:06.168Z,-3.20
2018-02-13T00:56:07.792Z,-3.10
2018-02-13T00:57:08.698Z,-3.10
2018-02-13T00:58:05.207Z,-3.20
2018-02-13T00:59:10.730Z,-3.10
2018-02-13T01:00:07.664Z,-3.10
2018-02-13T01:01:05.192Z,-3.10
2018-02-13T01:02:05.505Z,-3.10
2018-02-13T01:03:10.782Z,-3.10
2018-02-13T01:04:06.007Z,-3.10
2018-02-13T01:05:08.293Z,-3.10
2018-02-13T01:06:05.903Z,-3.00
2018-02-13T01:07:11.051Z,-3.00
2018-02-13T01:08:05.619Z,-3.10
2018-02-13T01:09:06.056Z,-3.00
2018-02-13T01:10:05.653Z,-3.00
2018-02-13T01:11:05.446Z,-3.00
2018-02-13T01:12:05.836Z,-3.10
2018-02-13T01:13:09.190Z,-3.10
2018-02-13T01:14:06.084Z,-3.10
2018-02-13T01:15:05.114Z,-3.10
2018-02-13T01:16:08.419Z,-3.10
2018-02-13T01:17:05.950Z,-3.10
2018-02-13T01:18:05.407Z,-3.10
2018-02-13T01:19:06.080Z,-3.10
2018-02-13T01:20:07.772Z,-3.10
2018-02-13T01:21:07.827Z,-3.20
2018-02-13T01:22:08.070Z,-3.20
2018-02-13T01:23:05.712Z,-3.20
2018-02-13T01:24:08.492Z,-3.20
2018-02-13T01:25:06.152Z,-3.20
2018-02-13T01:26:10.916Z,-3.20
2018-02-13T01:27:10.380Z,-3.10
2018-02-13T01:28:05.539Z,-3.20
2018-02-13T01:29:05.118Z,-3.10
2018-02-13T01:30:05.423Z,-3.10
2018-02-13T01:31:08.650Z,-3.10
2018-02-13T01:32:07.852Z,-3.10
2018-02-13T01:33:10.635Z,-3.10
2018-02-13T01:34:08.605Z,-3.10
2018-02-13T01:35:06.114Z,-3.10
2018-02-13T01:36:06.089Z,-3.10
2018-02-13T01:37:10.790Z,-3.10
2018-02-13T01:38:05.259Z,-3.10
2018-02-13T01:39:14.307Z,-3.00
2018-02-13T01:40:08.443Z,-3.00
2018-02-13T01:41:05.845Z,-3.00
2018-02-13T01:42:08.595Z,-2.90
2018-02-13T01:43:06.159Z,-3.00
2018-02-13T01:44:10.667Z,-2.90
2018-02-13T01:45:06.062Z,-2.90
2018-02-13T01:46:05.600Z,-2.90
2018-02-13T01:47:05.319Z,-2.90
2018-02-13T01:48:09.019Z,-2.90
2018-02-13T01:49:10.738Z,-2.90
2018-02-13T01:50:08.617Z,-2.90
2018-02-13T01:51:05.853Z,-2.80
2018-02-13T01:52:05.235Z,-2.80
2018-02-13T01:53:10.290Z,-2.80
2018-02-13T01:54:05.613Z,-2.80
2018-02-13T01:55:05.404Z,-2.80
2018-02-13T01:56:06.269Z,-2.70
2018-02-13T01:57:08.212Z,-2.70
2018-02-13T01:58:05.955Z,-2.70
2018-02-13T01:59:05.538Z,-2.70
2018-02-13T02:00:05.762Z,-2.70
2018-02-13T02:01:05.651Z,-2.70
2018-02-13T02:02:08.946Z,-2.70
2018-02-13T02:03:05.489Z,-2.70
2018-02-13T02:04:05.435Z,-2.70
2018-02-13T02:05:05.322Z,-2.60
2018-02-13T02:06:08.345Z,-2.70
2018-02-13T02:07:05.963Z,-2.60
2018-02-13T02:08:05.402Z,-2.70
2018-02-13T02:09:05.703Z,-2.60
2018-02-13T02:10:05.322Z,-2.60
2018-02-13T02:11:06.094Z,-2.70
2018-02-13T02:12:07.717Z,-2.60
2018-02-13T02:13:05.222Z,-2.60
2018-02-13T02:14:08.571Z,-2.60
2018-02-13T02:15:11.178Z,-2.60
2018-02-13T02:16:10.603Z,-2.60
2018-02-13T02:17:05.878Z,-2.60
2018-02-13T02:18:05.772Z,-2.60
2018-02-13T02:19:05.259Z,-2.60
2018-02-13T02:20:08.144Z,-2.60
2018-02-13T02:21:05.792Z,-2.60
2018-02-13T02:22:07.987Z,-2.60
2018-02-13T02:23:10.503Z,-2.50
2018-02-13T02:24:05.769Z,-2.60
2018-02-13T02:25:05.293Z,-2.50
2018-02-13T02:26:05.595Z,-2.60
2018-02-13T02:27:05.831Z,-2.50
2018-02-13T02:28:05.366Z,-2.50
2018-02-13T02:29:08.608Z,-2.50
2018-02-13T02:30:08.571Z,-2.50
2018-02-13T02:31:06.049Z,-2.50
2018-02-13T02:32:06.347Z,-2.50
2018-02-13T02:33:05.127Z,-2.50
2018-02-13T02:34:13.489Z,-2.50
2018-02-13T02:35:11.243Z,-2.50
2018-02-13T02:36:10.739Z,-2.50
2018-02-13T02:37:08.625Z,-2.50
2018-02-13T02:38:11.220Z,-2.50
2018-02-13T02:39:10.724Z,-2.50
2018-02-13T02:40:10.308Z,-2.50
2018-02-13T02:41:05.778Z,-2.50
2018-02-13T02:42:09.854Z,-2.40
2018-02-13T02:43:05.377Z,-2.50
2018-02-13T02:44:05.694Z,-2.50
2018-02-13T02:45:05.381Z,-2.40
2018-02-13T02:46:05.776Z,-2.50
2018-02-13T02:47:07.760Z,-2.50
2018-02-13T02:48:05.923Z,-2.50
2018-02-13T02:49:05.230Z,-2.50
2018-02-13T02:50:10.950Z,-2.50
2018-02-13T02:51:08.461Z,-2.40
2018-02-13T02:52:06.005Z,-2.50
2018-02-13T02:53:05.335Z,-2.50
2018-02-13T02:54:05.956Z,-2.40
2018-02-13T02:55:10.506Z,-2.40
2018-02-13T02:56:05.951Z,-2.40
2018-02-13T02:57:06.124Z,-2.40
2018-02-13T02:58:10.773Z,-2.50
2018-02-13T02:59:05.280Z,-2.50
2018-02-13T03:00:05.111Z,-2.50
2018-02-13T03:01:08.618Z,-2.40
2018-02-13T03:02:09.824Z,-2.40
2018-02-13T03:03:05.557Z,-2.40
2018-02-13T03:04:05.883Z,-2.40
2018-02-13T03:05:05.801Z,-2.40
2018-02-13T03:06:15.075Z,-2.40
2018-02-13T03:07:05.796Z,-2.40
2018-02-13T03:08:05.443Z,-2.40
2018-02-13T03:09:06.003Z,-2.40
2018-02-13T03:10:05.695Z,-2.40
2018-02-13T03:11:05.516Z,-2.40
2018-02-13T03:12:10.701Z,-2.30
2018-02-13T03:13:05.488Z,-2.30
2018-02-13T03:14:08.676Z,-2.30
2018-02-13T03:15:05.429Z,-2.40
2018-02-13T03:16:05.986Z,-2.30
2018-02-13T03:17:05.177Z,-2.40
2018-02-13T03:18:08.614Z,-2.30
2018-02-13T03:19:06.123Z,-2.30
2018-02-13T03:20:08.090Z,-2.30
2018-02-13T03:21:05.507Z,-2.30
2018-02-13T03:22:10.378Z,-2.30
2018-02-13T03:23:08.462Z,-2.30
2018-02-13T03:24:05.213Z,-2.30
2018-02-13T03:25:05.888Z,-2.30
2018-02-13T03:26:05.336Z,-2.30
2018-02-13T03:27:08.966Z,-2.30
2018-02-13T03:28:05.497Z,-2.30
2018-02-13T03:29:06.108Z,-2.30
2018-02-13T03:30:05.453Z,-2.30
2018-02-13T03:31:06.015Z,-2.30
2018-02-13T03:32:05.588Z,-2.30
2018-02-13T03:33:05.220Z,-2.30
2018-02-13T03:34:05.278Z,-2.30
2018-02-13T03:35:05.281Z,-2.30
2018-02-13T03:36:08.974Z,-2.30
2018-02-13T03:37:08.024Z,-2.30
2018-02-13T03:38:08.531Z,-2.30
2018-02-13T03:39:06.110Z,-2.30
2018-02-13T03:40:05.420Z,-2.30
2018-02-13T03:41:05.524Z,-2.30
2018-02-13T03:42:08.542Z,-2.30
2018-02-13T03:43:08.441Z,-2.30
2018-02-13T03:44:06.082Z,-2.20
2018-02-13T03:45:05.387Z,-2.30
2018-02-13T03:46:05.943Z,-2.30
2018-02-13T03:47:05.208Z,-2.20
2018-02-13T03:48:05.500Z,-2.20
2018-02-13T03:49:05.960Z,-2.20
2018-02-13T03:50:05.952Z,-2.30
2018-02-13T03:51:05.666Z,-2.20
2018-02-13T03:52:05.275Z,-2.20
2018-02-13T03:53:12.996Z,-2.20
2018-02-13T03:54:05.621Z,-2.20
2018-02-13T03:55:05.130Z,-2.20
2018-02-13T03:56:05.598Z,-2.20
2018-02-13T03:57:05.257Z,-2.20
2018-02-13T03:58:05.700Z,-2.30
2018-02-13T03:59:05.567Z,-2.20
2018-02-13T04:00:06.045Z,-2.20
2018-02-13T04:01:05.619Z,-2.20
2018-02-13T04:02:06.029Z,-2.30
2018-02-13T04:03:05.451Z,-2.30
2018-02-13T04:04:06.021Z,-2.20
2018-02-13T04:05:05.821Z,-2.20
2018-02-13T04:06:05.949Z,-2.20
2018-02-13T04:07:05.389Z,-2.20
2018-02-13T04:08:08.538Z,-2.30
2018-02-13T04:09:07.905Z,-2.30
2018-02-13T04:10:05.630Z,-2.30
2018-02-13T04:11:07.915Z,-2.20
2018-02-13T04:12:10.737Z,-2.30
2018-02-13T04:13:05.295Z,-2.30
2018-02-13T04:14:11.004Z,-2.20
2018-02-13T04:15:05.551Z,-2.30
2018-02-13T04:16:08.298Z,-2.30
2018-02-13T04:17:05.833Z,-2.30
2018-02-13T04:18:10.602Z,-2.30
2018-02-13T04:19:06.005Z,-2.30
2018-02-13T04:20:07.962Z,-2.30
2018-02-13T04:21:08.904Z,-2.30
2018-02-13T04:22:05.468Z,-2.30
2018-02-13T04:23:08.329Z,-2.30
2018-02-13T04:24:10.804Z,-2.30
2018-02-13T04:25:09.159Z,-2.30
2018-02-13T04:26:10.727Z,-2.30
2018-02-13T04:27:11.339Z,-2.30
2018-02-13T04:28:08.419Z,-2.30
2018-02-13T04:29:08.785Z,-2.30
2018-02-13T04:30:05.601Z,-2.30
2018-02-13T04:31:08.179Z,-2.30
2018-02-13T04:32:05.893Z,-2.30
2018-02-13T04:33:07.952Z,-2.30
2018-02-13T04:34:05.334Z,-2.30
2018-02-13T04:35:06.091Z,-2.30
2018-02-13T04:36:10.705Z,-2.30
2018-02-13T04:37:08.941Z,-2.30
2018-02-13T04:38:12.205Z,-2.20
2018-02-13T04:39:10.622Z,-2.30
2018-02-13T04:40:06.184Z,-2.20
2018-02-13T04:41:08.417Z,-2.30
2018-02-13T04:42:05.226Z,-2.30
2018-02-13T04:43:05.617Z,-2.30
2018-02-13T04:44:05.454Z,-2.30
2018-02-13T04:45:05.683Z,-2.20
2018-02-13T04:46:06.391Z,-2.30
2018-02-13T04:47:05.741Z,-2.30
2018-02-13T04:48:06.092Z,-2.30
2018-02-13T04:49:05.844Z,-2.30
2018-02-13T04:50:06.148Z,-2.20
2018-02-13T04:51:06.083Z,-2.30
2018-02-13T04:52:05.508Z,-2.30
2018-02-13T04:53:05.203Z,-2.20
2018-02-13T04:54:05.514Z,-2.30
2018-02-13T04:55:08.580Z,-2.30
2018-02-13T04:56:05.998Z,-2.30
2018-02-13T04:57:10.569Z,-2.30
2018-02-13T04:58:11.068Z,-2.30
2018-02-13T04:59:08.728Z,-2.30
2018-02-13T05:00:05.144Z,-2.30
2018-02-13T05:01:05.880Z,-2.30
2018-02-13T05:02:05.194Z,-2.30
2018-02-13T05:03:05.395Z,-2.30
2018-02-13T05:04:05.600Z,-2.30
2018-02-13T05:05:05.970Z,-2.30
2018-02-13T05:06:08.094Z,-2.30
2018-02-13T05:07:08.329Z,-2.30
2018-02-13T05:08:06.004Z,-2.40
2018-02-13T05:09:05.946Z,-2.30
2018-02-13T05:10:07.714Z,-2.30
2018-02-13T05:11:05.214Z,-2.30
2018-02-13T05:12:05.701Z,-2.30
2018-02-13T05:13:05.557Z,-2.40
2018-02-13T05:14:06.391Z,-2.40
2018-02-13T05:15:05.697Z,-2.40
2018-02-13T05:16:07.941Z,-2.40
2018-02-13T05:17:05.887Z,-2.40
2018-02-13T05:18:07.959Z,-2.40
2018-02-13T05:19:08.531Z,-2.40
2018-02-13T05:20:06.041Z,-2.40
2018-02-13T05:21:06.293Z,-2.40
2018-02-13T05:22:05.852Z,-2.40
2018-02-13T05:23:05.554Z,-2.40
2018-02-13T05:24:05.951Z,-2.40
2018-02-13T05:25:10.782Z,-2.40
2018-02-13T05:26:07.889Z,-2.40
2018-02-13T05:27:05.313Z,-2.40
2018-02-13T05:28:11.034Z,-2.40
2018-02-13T05:29:05.526Z,-2.40
2018-02-13T05:30:07.910Z,-2.40
2018-02-13T05:31:05.434Z,-2.40
2018-02-13T05:32:08.242Z,-2.40
2018-02-13T05:33:08.359Z,-2.40
2018-02-13T05:34:05.837Z,-2.40
2018-02-13T05:35:05.152Z,-2.40
2018-02-13T05:36:05.804Z,-2.40
2018-02-13T05:37:08.868Z,-2.40
2018-02-13T05:38:05.387Z,-2.40
2018-02-13T05:39:05.333Z,-2.50
2018-02-13T05:40:08.250Z,-2.40
2018-02-13T05:41:07.994Z,-2.50
2018-02-13T05:42:05.522Z,-2.50
2018-02-13T05:43:10.944Z,-2.50
2018-02-13T05:44:05.740Z,-2.50
2018-02-13T05:45:05.367Z,-2.50
2018-02-13T05:46:05.765Z,-2.40
2018-02-13T05:47:08.591Z,-2.50
2018-02-13T05:48:06.142Z,-2.50
2018-02-13T05:49:08.076Z,-2.50
2018-02-13T05:50:05.581Z,-2.50
2018-02-13T05:51:10.275Z,-2.50
2018-02-13T05:52:08.970Z,-2.50
2018-02-13T05:53:05.751Z,-2.50
2018-02-13T05:54:06.092Z,-2.50
2018-02-13T05:55:10.754Z,-2.50
2018-02-13T05:56:06.153Z,-2.50
2018-02-13T05:57:10.463Z,-2.50
2018-02-13T05:58:05.634Z,-2.60
2018-02-13T05:59:05.404Z,-2.50
2018-02-13T06:00:05.908Z,-2.60
2018-02-13T06:01:05.847Z,-2.60
2018-02-13T06:02:14.024Z,-2.60
2018-02-13T06:03:05.598Z,-2.60
2018-02-13T06:04:13.048Z,-2.70
2018-02-13T06:05:05.501Z,-2.60
2018-02-13T06:06:06.251Z,-2.60
2018-02-13T06:07:05.754Z,-2.70
2018-02-13T06:08:06.375Z,-2.70
2018-02-13T06:09:05.648Z,-2.70
2018-02-13T06:10:08.722Z,-2.70
2018-02-13T06:11:05.521Z,-2.70
2018-02-13T06:12:10.652Z,-2.70
2018-02-13T06:13:05.117Z,-2.70
2018-02-13T06:14:05.428Z,-2.80
2018-02-13T06:15:10.422Z,-2.80
2018-02-13T06:16:08.301Z,-2.80
2018-02-13T06:17:06.351Z,-2.80
2018-02-13T06:18:15.329Z,-2.70
2018-02-13T06:19:05.718Z,-2.80
2018-02-13T06:20:06.133Z,-2.80
2018-02-13T06:21:05.832Z,-2.80
2018-02-13T06:22:07.837Z,-2.80
2018-02-13T06:23:09.664Z,-2.80
2018-02-13T06:24:05.551Z,-2.80
2018-02-13T06:25:05.169Z,-2.80
2018-02-13T06:26:08.302Z,-2.90
2018-02-13T06:27:05.966Z,-2.90
2018-02-13T06:28:09.470Z,-2.90
2018-02-13T06:29:06.039Z,-3.00
2018-02-13T06:30:08.119Z,-3.00
2018-02-13T06:31:05.811Z,-3.00
2018-02-13T06:32:10.253Z,-3.00
2018-02-13T06:33:05.280Z,-3.00
2018-02-13T06:34:10.664Z,-3.00
2018-02-13T06:35:06.127Z,-3.00
2018-02-13T06:36:05.321Z,-3.10
2018-02-13T06:37:10.372Z,-3.00
2018-02-13T06:38:09.284Z,-3.00
2018-02-13T06:39:08.837Z,-3.10
2018-02-13T06:40:08.036Z,-3.10
2018-02-13T06:41:05.454Z,-3.10
2018-02-13T06:42:05.791Z,-3.10
2018-02-13T06:43:11.285Z,-3.10
2018-02-13T06:44:08.250Z,-3.10
2018-02-13T06:45:05.533Z,-3.10
2018-02-13T06:46:10.289Z,-3.10
2018-02-13T06:47:05.626Z,-3.10
2018-02-13T06:48:08.780Z,3.10
2018-02-13T06:49:05.329Z,-3.10
2018-02-13T06:50:13.689Z,-3.10
2018-02-13T06:51:05.211Z,-3.10
2018-02-13T06:52:08.060Z,-3.10
2018-02-13T06:53:06.056Z,-3.10
2018-02-13T06:54:10.310Z,-3.20
2018-02-13T06:55:05.894Z,-3.10
2018-02-13T06:56:05.458Z,-3.10
2018-02-13T06:57:05.579Z,-3.20
2018-02-13T06:58:05.650Z,-3.20
2018-02-13T06:59:06.497Z,-3.10
2018-02-13T07:00:06.108Z,-3.20
2018-02-13T07:01:05.739Z,-3.20
2018-02-13T07:02:06.016Z,-3.20
2018-02-13T07:03:05.211Z,-3.20
2018-02-13T07:04:15.556Z,-3.20
2018-02-13T07:05:11.066Z,-3.20
2018-02-13T07:06:05.459Z,-3.20
2018-02-13T07:07:05.811Z,-3.20
2018-02-13T07:08:05.691Z,-3.20
2018-02-13T07:09:09.291Z,-3.10
2018-02-13T07:10:05.889Z,-3.20
2018-02-13T07:11:06.053Z,-3.10
2018-02-13T07:12:08.230Z,-3.10
2018-02-13T07:13:05.637Z,-3.10
2018-02-13T07:14:10.722Z,-3.10
2018-02-13T07:15:12.827Z,-3.10
2018-02-13T07:16:05.229Z,-3.10
2018-02-13T07:17:06.137Z,-3.10
2018-02-13T07:18:13.929Z,-3.00
2018-02-13T07:19:07.969Z,-2.90
2018-02-13T07:20:07.675Z,-2.80
2018-02-13T07:21:13.695Z,-2.70
2018-02-13T07:22:05.324Z,-2.70
2018-02-13T07:23:05.473Z,-2.60
2018-02-13T07:24:05.778Z,-2.60
2018-02-13T07:25:08.097Z,-2.40
2018-02-13T07:26:08.099Z,-2.30
2018-02-13T07:27:08.866Z,-2.30
2018-02-13T07:28:05.291Z,-2.30
2018-02-13T07:29:05.750Z,-2.30
2018-02-13T07:30:05.555Z,-2.20
2018-02-13T07:31:05.461Z,-2.20
2018-02-13T07:32:11.138Z,-2.10
2018-02-13T07:33:05.637Z,-2.10
2018-02-13T07:34:05.170Z,-2.00
2018-02-13T07:35:05.440Z,-1.90
2018-02-13T07:36:05.690Z,-1.90
2018-02-13T07:37:07.875Z,-1.80
2018-02-13T07:38:05.427Z,-1.80
2018-02-13T07:39:08.275Z,-1.60
2018-02-13T07:40:05.696Z,-1.60
2018-02-13T07:41:06.271Z,-1.60
2018-02-13T07:42:05.194Z,-1.50
2018-02-13T07:48:05.213Z,-1.20
2018-02-13T07:49:11.191Z,-1.20
2018-02-13T07:50:07.943Z,-1.10
2018-02-13T07:51:05.412Z,-1.10
2018-02-13T07:52:10.739Z,-1.00
2018-02-13T07:53:05.211Z,-1.00
2018-02-13T07:54:06.088Z,-1.00
2018-02-13T07:55:06.059Z,-0.90
2018-02-13T07:56:05.959Z,-0.90
2018-02-13T07:57:05.573Z,-0.80
2018-02-13T07:58:05.427Z,-0.80
2018-02-13T07:59:06.196Z,-0.70
2018-02-13T08:00:05.845Z,-0.70
2018-02-13T08:01:05.663Z,-0.60
2018-02-13T08:02:14.016Z,-0.60
2018-02-13T08:03:10.771Z,-0.50
2018-02-13T08:04:10.419Z,-0.50
2018-02-13T08:05:09.232Z,-0.50
2018-02-13T08:06:08.717Z,-0.50
2018-02-13T08:07:05.278Z,-0.50
2018-02-13T08:08:08.478Z,-0.40
2018-02-13T08:09:11.163Z,-0.30
2018-02-13T08:10:07.829Z,-0.30
2018-02-13T08:11:10.380Z,-0.20
2018-02-13T08:12:05.645Z,-0.20
2018-02-13T08:13:05.877Z,-0.20
2018-02-13T08:14:05.252Z,-0.10
2018-02-13T08:15:06.046Z,0.00
2018-02-13T08:16:11.041Z,0.00
2018-02-13T08:17:08.165Z,0.10
2018-02-13T08:18:10.715Z,0.10
2018-02-13T08:19:05.406Z,0.10
2018-02-13T08:20:06.140Z,0.20
2018-02-13T08:21:09.064Z,0.30
2018-02-13T08:22:05.813Z,0.30
2018-02-13T08:23:05.824Z,0.30
2018-02-13T08:24:05.969Z,0.30
2018-02-13T08:25:08.702Z,0.40
2018-02-13T08:26:05.141Z,0.40
2018-02-13T08:27:08.351Z,0.50
2018-02-13T08:28:06.003Z,0.50
2018-02-13T08:29:05.657Z,0.60
2018-02-13T08:30:06.228Z,0.60
2018-02-13T08:31:05.881Z,0.60
2018-02-13T08:32:08.769Z,0.70
2018-02-13T08:33:05.209Z,0.70
2018-02-13T08:34:05.352Z,0.70
2018-02-13T08:35:11.124Z,0.70
2018-02-13T08:36:05.375Z,0.70
2018-02-13T08:37:05.774Z,0.70
2018-02-13T08:38:06.084Z,0.70
2018-02-13T08:39:08.036Z,0.80
2018-02-13T08:40:05.515Z,0.80
2018-02-13T08:41:05.177Z,0.80
2018-02-13T08:42:05.988Z,0.80
2018-02-13T08:43:10.353Z,0.80
2018-02-13T08:44:05.731Z,0.80
2018-02-13T08:45:10.319Z,0.90
2018-02-13T08:46:05.764Z,0.90
2018-02-13T08:47:10.755Z,0.90
2018-02-13T08:48:05.992Z,0.90
2018-02-13T08:49:08.342Z,1.00
2018-02-13T08:50:05.872Z,1.00
2018-02-13T08:51:08.077Z,1.10
2018-02-13T08:52:08.580Z,1.10
2018-02-13T08:53:08.632Z,1.10
2018-02-13T08:54:07.708Z,1.10
2018-02-13T08:55:07.973Z,1.10
2018-02-13T08:56:05.529Z,1.10
2018-02-13T08:57:05.956Z,1.10
2018-02-13T08:58:05.536Z,1.20
2018-02-13T08:59:05.949Z,1.20
2018-02-13T09:00:08.269Z,1.20
2018-02-13T09:01:10.840Z,1.20
2018-02-13T09:02:05.315Z,1.20
2018-02-13T09:03:05.708Z,1.30
2018-02-13T09:04:06.184Z,1.30
2018-02-13T09:05:10.824Z,1.30
2018-02-13T09:06:06.075Z,1.30
2018-02-13T09:07:10.505Z,1.20
2018-02-13T09:08:05.906Z,1.30
2018-02-13T09:09:05.870Z,1.30
2018-02-13T09:10:06.096Z,1.30
2018-02-13T09:11:05.756Z,1.30
2018-02-13T09:12:05.588Z,1.30
2018-02-13T09:13:05.544Z,1.30
2018-02-13T09:14:05.682Z,1.40
2018-02-13T09:15:06.403Z,1.40
2018-02-13T09:16:05.342Z,1.40
2018-02-13T09:17:05.749Z,1.40
2018-02-13T09:18:06.127Z,1.40
2018-02-13T09:19:05.888Z,1.40
2018-02-13T09:20:15.398Z,1.40
2018-02-13T09:21:06.146Z,1.40
2018-02-13T09:22:07.060Z,1.50
2018-02-13T09:23:09.070Z,1.50
2018-02-13T09:24:08.881Z,1.60
2018-02-13T09:25:05.563Z,1.50
2018-02-13T09:26:09.007Z,0.70
2018-02-13T09:27:08.810Z,1.60
2018-02-13T09:28:05.294Z,1.60
2018-02-13T09:29:08.119Z,1.60
2018-02-13T09:30:08.309Z,1.70
2018-02-13T09:31:05.169Z,1.70
2018-02-13T09:32:06.173Z,1.70
2018-02-13T09:33:08.348Z,1.70
2018-02-13T09:34:09.015Z,1.70
2018-02-13T09:35:05.610Z,1.70
2018-02-13T09:36:05.273Z,1.80
2018-02-13T09:37:05.416Z,1.80
2018-02-13T09:38:12.862Z,1.80
2018-02-13T09:39:05.358Z,1.80
2018-02-13T09:40:05.256Z,1.90
2018-02-13T09:41:13.613Z,1.90
2018-02-13T09:42:06.086Z,1.90
2018-02-13T09:43:10.560Z,1.90
2018-02-13T09:44:05.666Z,1.90
2018-02-13T09:45:07.947Z,2.00
2018-02-13T09:46:05.854Z,1.90
2018-02-13T09:47:06.154Z,2.00
2018-02-13T09:48:10.748Z,2.00
2018-02-13T09:49:08.924Z,2.00
2018-02-13T09:50:05.464Z,2.00
2018-02-13T09:51:07.662Z,2.00
2018-02-13T09:52:07.675Z,2.00
2018-02-13T09:53:06.087Z,2.00
2018-02-13T09:54:05.853Z,2.00
2018-02-13T09:55:05.266Z,2.00
2018-02-13T09:56:05.346Z,2.00
2018-02-13T09:57:06.045Z,2.00
2018-02-13T09:58:05.337Z,2.00
2018-02-13T09:59:06.085Z,2.10
2018-02-13T10:00:05.524Z,2.00
2018-02-13T10:01:05.762Z,2.10
2018-02-13T10:02:05.474Z,2.10
2018-02-13T10:03:11.071Z,2.10
2018-02-13T10:04:05.261Z,2.10
2018-02-13T10:05:10.710Z,2.20
2018-02-13T10:06:05.949Z,2.20
2018-02-13T10:07:06.009Z,2.20
2018-02-13T10:08:13.390Z,2.20
2018-02-13T10:09:10.154Z,2.20
2018-02-13T10:10:06.315Z,2.20
2018-02-13T10:11:06.975Z,2.20
2018-02-13T10:12:07.151Z,2.30
2018-02-13T10:13:08.525Z,2.40
2018-02-13T10:14:06.153Z,2.30
2018-02-13T10:15:08.709Z,2.40
2018-02-13T10:16:08.273Z,2.40
2018-02-13T10:17:09.351Z,2.40
2018-02-13T10:18:05.802Z,2.40
2018-02-13T10:19:06.172Z,2.50
2018-02-13T10:20:05.532Z,2.50
2018-02-13T10:21:08.451Z,2.60
2018-02-13T10:22:06.001Z,2.50
2018-02-13T10:23:05.248Z,2.60
2018-02-13T10:24:10.935Z,2.60
2018-02-13T10:25:06.020Z,2.60
2018-02-13T10:26:05.614Z,2.60
2018-02-13T10:27:05.330Z,2.60
2018-02-13T10:28:05.548Z,2.70
2018-02-13T10:29:08.544Z,2.70
2018-02-13T10:30:05.339Z,2.70
2018-02-13T10:31:08.739Z,2.70
2018-02-13T10:32:05.200Z,2.70
2018-02-13T10:33:05.894Z,2.70
2018-02-13T10:34:06.133Z,2.70
2018-02-13T10:35:07.849Z,2.80
2018-02-13T10:36:11.128Z,2.70
2018-02-13T10:37:05.520Z,2.80
2018-02-13T10:38:08.775Z,2.90
2018-02-13T10:39:05.321Z,2.90
2018-02-13T10:40:08.056Z,2.90
2018-02-13T10:41:10.625Z,2.90
2018-02-13T10:42:06.086Z,2.90
2018-02-13T10:43:08.836Z,3.00
2018-02-13T10:44:05.283Z,2.90
2018-02-13T10:45:06.037Z,3.00
2018-02-13T10:46:05.826Z,3.00
2018-02-13T10:47:11.040Z,3.00
2018-02-13T10:48:05.282Z,3.00
2018-02-13T10:49:08.390Z,3.10
2018-02-13T10:50:08.746Z,3.10
2018-02-13T10:51:10.548Z,3.10
2018-02-13T10:52:05.939Z,3.10
2018-02-13T10:53:10.949Z,3.10
2018-02-13T10:54:13.530Z,3.20
2018-02-13T10:55:06.266Z,3.20
2018-02-13T10:56:10.766Z,3.10
2018-02-13T10:57:05.463Z,3.20
2018-02-13T10:58:06.150Z,3.20
2018-02-13T10:59:05.942Z,3.20
2018-02-13T11:00:05.276Z,3.20
2018-02-13T11:01:05.916Z,3.20
2018-02-13T11:02:08.711Z,3.30
2018-02-13T11:03:05.270Z,3.30
2018-02-13T11:04:05.667Z,3.30
2018-02-13T11:05:10.779Z,3.30
2018-02-13T11:06:05.971Z,3.30
2018-02-13T11:07:10.444Z,3.30
2018-02-13T11:08:08.158Z,3.30
2018-02-13T11:09:08.237Z,3.40
2018-02-13T11:10:10.730Z,3.40
2018-02-13T11:11:06.051Z,3.40
2018-02-13T11:12:10.458Z,3.30
2018-02-13T11:13:05.944Z,3.40
2018-02-13T11:14:05.439Z,3.30
2018-02-13T11:15:05.795Z,3.40
2018-02-13T11:16:10.421Z,3.40
2018-02-13T11:17:08.530Z,3.40
2018-02-13T11:18:06.198Z,3.40
2018-02-13T11:19:08.243Z,3.40
2018-02-13T11:20:08.242Z,3.40
2018-02-13T11:21:06.062Z,3.40
2018-02-13T11:22:05.723Z,3.50
2018-02-13T11:23:05.283Z,3.50
2018-02-13T11:24:06.366Z,3.50
2018-02-13T11:25:06.001Z,3.50
2018-02-13T11:26:10.471Z,3.50
2018-02-13T11:27:10.750Z,3.50
2018-02-13T11:28:05.333Z,3.50
2018-02-13T11:29:05.820Z,3.60
2018-02-13T11:30:05.331Z,3.60
2018-02-13T11:31:05.425Z,3.60
2018-02-13T11:32:09.588Z,3.50
2018-02-13T11:33:08.209Z,3.60
2018-02-13T11:34:08.842Z,3.60
2018-02-13T11:35:13.005Z,3.60
2018-02-13T11:36:05.563Z,3.60
2018-02-13T11:37:08.927Z,3.60
2018-02-13T11:38:05.421Z,3.60
2018-02-13T11:39:05.547Z,3.70
2018-02-13T11:40:05.341Z,3.60
2018-02-13T11:41:11.149Z,3.70
2018-02-13T11:42:05.901Z,3.70
2018-02-13T11:43:05.536Z,3.60
2018-02-13T11:44:05.459Z,3.70
2018-02-13T11:45:05.988Z,3.70
2018-02-13T11:46:10.611Z,3.60
2018-02-13T11:47:06.092Z,3.70
2018-02-13T11:48:10.739Z,3.80
2018-02-13T11:49:05.319Z,3.80
2018-02-13T11:50:06.164Z,3.80
2018-02-13T11:51:05.704Z,3.70
2018-02-13T11:52:05.574Z,3.80
2018-02-13T11:53:08.599Z,3.80
2018-02-13T11:54:06.082Z,3.80
2018-02-13T11:55:10.608Z,3.80
2018-02-13T11:56:05.898Z,3.80
2018-02-13T11:57:05.901Z,3.80
2018-02-13T11:58:05.264Z,3.80
2018-02-13T11:59:05.466Z,3.90
2018-02-13T12:00:06.000Z,3.90
2018-02-13T12:01:05.706Z,3.90
2018-02-13T12:02:05.480Z,3.90
2018-02-13T12:03:05.766Z,3.90
2018-02-13T12:04:08.302Z,3.90
2018-02-13T12:05:05.822Z,3.90
2018-02-13T12:06:05.345Z,3.90
2018-02-13T12:07:06.020Z,3.90
2018-02-13T12:08:05.677Z,3.90
2018-02-13T12:09:05.152Z,3.90
2018-02-13T12:10:05.771Z,3.90
2018-02-13T12:11:05.669Z,3.90
2018-02-13T12:12:10.432Z,3.90
2018-02-13T12:13:08.154Z,4.00
2018-02-13T12:14:05.608Z,3.90
2018-02-13T12:15:05.105Z,4.00
2018-02-13T12:16:05.727Z,4.00
2018-02-13T12:17:05.362Z,4.00
2018-02-13T12:18:08.655Z,4.00
2018-02-13T12:19:05.216Z,4.00
2018-02-13T12:20:06.106Z,4.00
2018-02-13T12:21:05.783Z,4.00
2018-02-13T12:22:06.587Z,4.00
2018-02-13T12:23:06.073Z,4.00
2018-02-13T12:24:05.825Z,4.00
2018-02-13T12:25:05.828Z,4.10
2018-02-13T12:26:05.327Z,4.00
2018-02-13T12:27:06.129Z,4.10
2018-02-13T12:28:05.429Z,4.10
2018-02-13T12:29:06.823Z,4.10
2018-02-13T12:30:10.366Z,4.10
2018-02-13T12:31:10.901Z,4.10
2018-02-13T12:32:05.451Z,4.10
2018-02-13T12:33:08.714Z,4.10
2018-02-13T12:34:05.214Z,4.10
2018-02-13T12:35:06.029Z,4.10
2018-02-13T12:36:05.864Z,4.10
2018-02-13T12:37:11.134Z,4.00
2018-02-13T12:38:05.880Z,4.00
2018-02-13T12:39:05.497Z,4.00
2018-02-13T12:40:05.658Z,4.00
2018-02-13T12:41:08.355Z,4.10
2018-02-13T12:42:06.039Z,4.00
2018-02-13T12:43:05.824Z,4.10
2018-02-13T12:44:05.332Z,4.10
2018-02-13T12:45:07.919Z,4.10
2018-02-13T12:46:05.492Z,4.10
2018-02-13T12:47:08.585Z,4.10
2018-02-13T12:48:11.660Z,4.10
2018-02-13T12:49:11.227Z,4.10
2018-02-13T12:50:06.674Z,4.10
2018-02-13T12:51:05.205Z,4.10
2018-02-13T12:52:05.793Z,4.10
2018-02-13T12:53:07.890Z,4.00
2018-02-13T12:54:05.509Z,4.00
2018-02-13T12:55:05.359Z,4.00
2018-02-13T12:56:08.786Z,3.80
2018-02-13T12:57:05.407Z,3.80
2018-02-13T12:58:05.677Z,3.80
2018-02-13T12:59:06.747Z,3.70
2018-02-13T13:00:05.483Z,3.60
2018-02-13T13:01:06.170Z,3.60
2018-02-13T13:02:08.400Z,3.50
2018-02-13T13:03:05.281Z,3.50
2018-02-13T13:04:06.234Z,3.50
2018-02-13T13:05:08.052Z,3.40
2018-02-13T13:06:05.606Z,3.50
2018-02-13T13:07:11.241Z,3.40